Time;durP1;ratioP1;P1;durP2;ratioP2;P2;SDS_P1;SDS_P2;PMS_P1;PMS_P2;Temp;Humidity;BMP_temperature;BMP_pressure;BME280_temperature;BME280_humidity;BME280_pressure;Samples;Min_cycle;Max_cycle;Signal;HPM_P1;HPM_P2
2021/01/17 00:01:48;;;;;;;31.20;18.80;;;5.10;73.40;;;;;;5008653;28;20046;-71
2021/01/17 00:04:14;;;;;;;36.27;20.57;;;5.10;73.30;;;;;;5007511;28;20642;-71
2021/01/17 00:06:39;;;;;;;34.97;21.53;;;5.10;73.10;;;;;;4991628;28;20037;-70
2021/01/17 00:09:05;;;;;;;36.47;20.87;;;5.00;73.40;;;;;;5007718;28;20026;-70
2021/01/17 00:11:31;;;;;;;36.43;20.87;;;5.00;73.60;;;;;;4992687;28;20041;-69
2021/01/17 00:13:56;;;;;;;31.93;18.43;;;5.00;73.70;;;;;;5007331;28;20068;-70
2021/01/17 00:16:22;;;;;;;41.63;23.27;;;4.50;73.40;;;;;;5009777;28;20041;-70
2021/01/17 00:18:48;;;;;;;41.67;22.87;;;4.90;73.60;;;;;;5007594;28;20041;-69
2021/01/17 00:21:13;;;;;;;33.13;19.40;;;4.90;73.80;;;;;;5009548;28;20619;-70
2021/01/17 00:23:39;;;;;;;41.63;22.57;;;4.80;74.00;;;;;;5000134;28;20042;-68
2021/01/17 00:26:05;;;;;;;36.30;21.70;;;4.00;73.60;;;;;;5005954;28;20145;-69
2021/01/17 00:28:30;;;;;;;34.63;19.43;;;4.80;74.00;;;;;;5007085;28;20034;-69
2021/01/17 00:30:56;;;;;;;35.23;20.17;;;4.90;74.00;;;;;;5007878;28;20050;-70
2021/01/17 00:33:21;;;;;;;38.37;19.50;;;5.00;73.80;;;;;;5005160;28;20060;-69
2021/01/17 00:35:47;;;;;;;39.30;23.60;;;5.00;73.80;;;;;;5009603;28;20113;-68
2021/01/17 00:38:13;;;;;;;34.53;19.90;;;5.00;73.90;;;;;;5006516;28;20033;-69
2021/01/17 00:40:38;;;;;;;40.67;20.33;;;5.00;73.90;;;;;;5009262;28;20061;-71
2021/01/17 00:43:04;;;;;;;37.93;20.53;;;5.00;73.70;;;;;;5009791;28;20108;-70
2021/01/17 00:45:30;;;;;;;36.97;21.90;;;5.10;73.70;;;;;;5005477;28;20082;-69
2021/01/17 00:47:56;;;;;;;36.60;21.10;;;5.10;73.40;;;;;;5008359;28;20087;-68
2021/01/17 00:50:22;;;;;;;39.47;22.27;;;5.20;73.40;;;;;;5004714;28;20033;-69
2021/01/17 00:52:55;;;;;;;39.03;23.07;;;5.10;73.20;;;;;;5003102;28;20030;-68
2021/01/17 00:55:21;;;;;;;40.15;21.20;;;5.10;73.20;;;;;;5003166;28;20069;-68
2021/01/17 00:57:47;;;;;;;39.40;23.40;;;5.00;73.40;;;;;;4998481;28;20415;-68
2021/01/17 01:00:15;;;;;;;34.93;20.23;;;4.90;73.70;;;;;;5009991;28;20033;-68
2021/01/17 01:02:42;;;;;;;40.80;23.23;;;5.00;73.90;;;;;;5008350;28;20034;-67
2021/01/17 01:05:08;;;;;;;36.77;20.67;;;5.00;73.80;;;;;;5008855;28;20124;-68
2021/01/17 01:07:35;;;;;;;38.57;19.87;;;5.10;73.70;;;;;;5008732;28;20472;-67
2021/01/17 01:10:00;;;;;;;36.13;21.07;;;5.20;73.50;;;;;;5008384;28;20034;-68
2021/01/17 01:12:26;;;;;;;34.53;19.83;;;5.20;73.40;;;;;;5010628;28;20038;-68
2021/01/17 01:14:52;;;;;;;41.27;22.37;;;5.20;73.20;;;;;;5012577;28;20112;-68
2021/01/17 01:17:17;;;;;;;39.87;22.60;;;5.20;73.30;;;;;;5014035;28;20061;-67
2021/01/17 01:19:43;;;;;;;34.27;19.33;;;5.20;73.20;;;;;;5013796;28;20464;-67
2021/01/17 01:22:08;;;;;;;39.23;22.10;;;5.20;73.20;;;;;;5012248;28;20042;-67
2021/01/17 01:24:34;;;;;;;36.90;21.13;;;5.30;73.20;;;;;;5013508;28;20053;-68
2021/01/17 01:27:00;;;;;;;37.33;19.70;;;5.20;73.30;;;;;;5011382;28;20120;-67
2021/01/17 01:29:25;;;;;;;44.13;23.17;;;5.30;73.30;;;;;;5012975;28;20105;-68
2021/01/17 01:31:52;;;;;;;36.63;21.60;;;5.20;73.20;;;;;;5013729;28;20061;-67
2021/01/17 01:34:17;;;;;;;37.43;19.47;;;5.20;73.20;;;;;;5012015;28;20030;-68
2021/01/17 01:36:44;;;;;;;37.63;21.53;;;5.30;73.20;;;;;;5014021;28;20041;-67
2021/01/17 01:39:11;;;;;;;40.63;23.03;;;5.30;73.20;;;;;;4995064;28;20034;-68
2021/01/17 01:41:39;;;;;;;38.70;21.20;;;5.30;73.10;;;;;;5014354;28;20045;-68
2021/01/17 01:44:05;;;;;;;38.50;20.43;;;5.30;73.20;;;;;;5012825;28;20164;-68
2021/01/17 01:46:32;;;;;;;38.70;20.13;;;5.30;73.00;;;;;;5013155;28;20056;-67
2021/01/17 01:49:01;;;;;;;40.70;22.53;;;5.30;73.10;;;;;;5011965;28;20045;-68
2021/01/17 01:51:27;;;;;;;39.10;20.73;;;5.30;73.20;;;;;;4994453;28;20113;-67
2021/01/17 01:53:55;;;;;;;38.50;21.10;;;5.30;73.20;;;;;;4995430;28;20175;-68
2021/01/17 01:56:21;;;;;;;38.73;19.93;;;5.30;73.10;;;;;;5013819;28;20112;-68
2021/01/17 01:58:47;;;;;;;41.10;22.03;;;5.30;73.00;;;;;;5012462;28;20026;-67
2021/01/17 02:01:13;;;;;;;41.30;23.03;;;5.30;73.20;;;;;;5011716;28;20041;-67
2021/01/17 02:03:45;;;;;;;46.73;23.83;;;5.30;73.10;;;;;;5010516;28;20141;-67
2021/01/17 02:06:11;;;;;;;53.33;26.37;;;5.30;73.20;;;;;;5012810;28;20046;-68
2021/01/17 02:08:49;;;;;;;42.63;21.90;;;5.20;73.40;;;;;;5012296;28;20528;-68
2021/01/17 02:11:41;;;;;;;41.80;23.13;;;5.20;73.50;;;;;;5013046;28;20603;-67
2021/01/17 02:14:41;;;;;;;41.87;21.77;;;5.20;73.50;;;;;;5010504;28;20475;-68
2021/01/17 02:17:12;;;;;;;36.83;20.17;;;5.30;73.50;;;;;;5009542;28;20464;-67
2021/01/17 02:20:11;;;;;;;39.73;21.13;;;5.30;73.50;;;;;;5009381;28;20029;-68
2021/01/17 02:22:44;;;;;;;45.97;23.50;;;5.30;73.40;;;;;;5000713;28;20399;-68
2021/01/17 02:25:10;;;;;;;43.95;23.17;;;5.30;73.40;;;;;;5006700;28;20137;-68
2021/01/17 02:27:39;;;;;;;50.37;24.67;;;5.40;73.30;;;;;;5012655;28;20028;-67
2021/01/17 02:30:10;;;;;;;40.90;20.37;;;5.30;73.40;;;;;;5011533;28;20737;-68
2021/01/17 02:32:40;;;;;;;40.73;19.97;;;5.30;73.40;;;;;;5011651;28;20057;-68
2021/01/17 02:35:09;;;;;;;45.37;23.47;;;5.30;73.40;;;;;;5011409;28;20038;-67
2021/01/17 02:37:58;;;;;;;38.87;19.87;;;5.30;73.50;;;;;;5001759;28;20039;-68
2021/01/17 02:41:05;;;;;;;45.93;23.40;;;5.40;73.50;;;;;;5003096;28;20209;-67
2021/01/17 02:43:31;;;;;;;39.83;22.20;;;5.40;73.50;;;;;;5009689;28;20585;-68
2021/01/17 02:45:56;;;;;;;47.83;23.13;;;5.40;73.40;;;;;;5008638;28;20134;-68
2021/01/17 02:48:22;;;;;;;39.93;20.83;;;5.40;73.50;;;;;;5010726;28;20432;-68
2021/01/17 02:50:47;;;;;;;40.87;20.07;;;5.30;73.70;;;;;;5011322;28;20029;-68
2021/01/17 02:53:28;;;;;;;42.93;20.47;;;5.30;73.80;;;;;;5010140;28;20053;-68
2021/01/17 02:55:58;;;;;;;41.10;21.77;;;5.30;74.00;;;;;;5012634;28;20029;-68
2021/01/17 02:58:24;;;;;;;41.80;20.10;;;5.30;74.00;;;;;;5011277;28;20018;-68
2021/01/17 03:00:54;;;;;;;41.37;21.33;;;5.30;74.00;;;;;;5012334;28;20109;-68
2021/01/17 03:03:22;;;;;;;45.80;22.80;;;5.30;74.00;;;;;;5010752;28;20034;-68
2021/01/17 03:05:48;;;;;;;40.60;21.07;;;5.30;74.10;;;;;;5010676;28;20037;-67
2021/01/17 03:08:16;;;;;;;43.47;20.87;;;5.30;74.10;;;;;;5011890;28;20034;-68
2021/01/17 03:10:42;;;;;;;40.03;19.60;;;5.30;74.20;;;;;;5011819;28;20038;-67
2021/01/17 03:13:09;;;;;;;41.33;22.27;;;5.40;74.20;;;;;;5011567;28;20040;-67
2021/01/17 03:15:36;;;;;;;43.27;22.10;;;5.40;74.10;;;;;;5011419;28;20025;-67
2021/01/17 03:18:02;;;;;;;49.03;20.83;;;5.40;74.00;;;;;;5010867;28;20041;-67
2021/01/17 03:20:28;;;;;;;43.87;21.33;;;5.40;74.00;;;;;;5011229;28;20021;-68
2021/01/17 03:22:54;;;;;;;38.97;21.00;;;5.40;74.20;;;;;;4995911;28;20070;-68
2021/01/17 03:25:19;;;;;;;42.93;21.40;;;5.40;74.30;;;;;;5009938;28;20585;-67
2021/01/17 03:27:45;;;;;;;43.93;21.70;;;5.40;74.20;;;;;;5010378;28;20081;-67
2021/01/17 03:30:11;;;;;;;37.53;20.67;;;5.40;74.20;;;;;;4992273;28;20038;-67
2021/01/17 03:32:37;;;;;;;41.13;20.50;;;5.50;74.20;;;;;;5011872;28;20395;-67
2021/01/17 03:35:03;;;;;;;37.97;18.93;;;5.50;74.10;;;;;;5008266;28;20029;-68
2021/01/17 03:37:28;;;;;;;37.63;18.47;;;5.50;74.20;;;;;;5006424;28;20033;-68
2021/01/17 03:39:54;;;;;;;40.70;21.70;;;5.50;74.20;;;;;;5008000;28;20083;-67
2021/01/17 03:42:20;;;;;;;34.30;17.90;;;5.50;74.20;;;;;;4993014;28;20053;-67
2021/01/17 03:44:48;;;;;;;37.30;18.47;;;5.50;74.20;;;;;;5010699;28;20129;-67
2021/01/17 03:47:14;;;;;;;39.00;18.53;;;5.50;74.20;;;;;;5009012;28;20061;-68
2021/01/17 03:49:39;;;;;;;33.47;17.37;;;5.50;74.20;;;;;;5010567;28;20025;-67
2021/01/17 03:52:05;;;;;;;34.90;17.60;;;5.60;74.20;;;;;;5010788;28;20038;-67
2021/01/17 03:54:31;;;;;;;37.13;18.70;;;5.60;74.20;;;;;;5006915;28;20038;-67
2021/01/17 03:57:03;;;;;;;34.70;16.37;;;5.60;74.10;;;;;;5091248;27;20392;-67
2021/01/17 03:59:29;;;;;;;37.60;18.17;;;5.60;74.10;;;;;;5086541;28;20036;-67
2021/01/17 04:01:54;;;;;;;41.73;19.33;;;5.50;74.20;;;;;;5072946;28;20029;-67
2021/01/17 04:04:20;;;;;;;34.33;18.20;;;5.60;74.20;;;;;;5062383;28;20032;-68
2021/01/17 04:06:46;;;;;;;28.30;15.30;;;5.60;74.20;;;;;;5066087;28;20032;-67
2021/01/17 04:09:11;;;;;;;33.93;17.37;;;5.60;74.20;;;;;;5085171;28;20081;-68
2021/01/17 04:11:37;;;;;;;30.47;15.20;;;5.60;74.20;;;;;;5080873;28;20104;-67
2021/01/17 04:14:03;;;;;;;28.30;15.47;;;5.60;74.10;;;;;;5067263;28;20043;-68
2021/01/17 04:16:28;;;;;;;33.97;18.20;;;5.60;74.10;;;;;;5074430;28;20120;-68
2021/01/17 04:18:54;;;;;;;34.90;18.80;;;5.60;74.10;;;;;;5079211;28;20028;-68
2021/01/17 04:21:20;;;;;;;34.70;16.87;;;5.70;74.00;;;;;;5062491;28;20043;-68
2021/01/17 04:23:45;;;;;;;30.40;15.63;;;5.70;74.00;;;;;;5054838;28;20071;-68
2021/01/17 04:26:11;;;;;;;31.10;16.80;;;5.70;74.00;;;;;;5069832;28;20085;-68
2021/01/17 04:28:37;;;;;;;30.67;16.83;;;5.70;73.90;;;;;;5086482;28;20489;-68
2021/01/17 04:31:03;;;;;;;30.37;16.37;;;5.70;73.80;;;;;;5067313;28;20467;-68
2021/01/17 04:33:28;;;;;;;34.23;18.47;;;5.80;73.80;;;;;;5084713;28;20027;-68
2021/01/17 04:35:54;;;;;;;31.57;16.03;;;5.70;73.70;;;;;;5074584;28;20374;-68
2021/01/17 04:38:20;;;;;;;30.67;15.50;;;5.70;73.80;;;;;;5073807;28;20035;-68
2021/01/17 04:40:45;;;;;;;31.37;15.67;;;5.70;73.80;;;;;;5082662;28;20131;-68
2021/01/17 04:43:40;;;;;;;32.47;16.73;;;5.70;73.90;;;;;;5056476;28;20117;-68
2021/01/17 04:46:07;;;;;;;30.47;16.27;;;5.70;73.90;;;;;;5077689;28;20399;-68
2021/01/17 04:48:34;;;;;;;30.33;16.90;;;5.70;74.00;;;;;;5060117;28;20032;-68
2021/01/17 04:51:02;;;;;;;35.50;17.87;;;5.70;74.00;;;;;;5087210;28;20063;-68
2021/01/17 04:53:29;;;;;;;31.40;17.00;;;5.70;74.10;;;;;;5084083;28;20099;-68
2021/01/17 04:56:11;;;;;;;31.13;15.23;;;5.60;74.20;;;;;;5066929;28;20122;-68
2021/01/17 04:58:42;;;;;;;28.23;15.57;;;5.70;74.30;;;;;;5039098;28;20056;-68
2021/01/17 05:01:21;;;;;;;28.83;15.43;;;5.70;74.20;;;;;;5056869;28;20034;-68
2021/01/17 05:04:18;;;;;;;27.37;15.30;;;5.70;74.20;;;;;;5059177;28;20088;-68
2021/01/17 05:06:48;;;;;;;28.03;15.43;;;5.70;74.00;;;;;;5059778;28;20017;-68
2021/01/17 05:09:23;;;;;;;32.03;16.60;;;5.70;74.00;;;;;;5051741;28;20395;-68
2021/01/17 05:11:51;;;;;;;29.03;16.47;;;5.70;74.00;;;;;;5045563;28;20054;-68
2021/01/17 05:15:03;;;;;;;30.00;15.80;;;5.80;74.00;;;;;;5015428;28;20074;-68
2021/01/17 05:17:41;;;;;;;26.87;14.53;;;5.80;74.00;;;;;;5021603;28;20053;-68
2021/01/17 05:20:08;;;;;;;29.97;15.97;;;5.70;74.00;;;;;;5036762;28;20040;-68
2021/01/17 05:22:35;;;;;;;28.20;14.40;;;5.80;74.10;;;;;;5042941;28;20029;-68
2021/01/17 05:25:04;;;;;;;31.17;15.43;;;5.80;74.10;;;;;;5015164;28;20391;-68
2021/01/17 05:27:31;;;;;;;29.43;16.23;;;5.80;74.00;;;;;;5042997;28;20048;-68
2021/01/17 05:29:57;;;;;;;26.47;13.80;;;5.80;74.00;;;;;;5034045;28;20371;-68
2021/01/17 05:32:24;;;;;;;31.83;16.33;;;5.80;74.00;;;;;;5051300;28;20033;-68
2021/01/17 05:34:51;;;;;;;27.60;15.60;;;5.90;74.00;;;;;;5045833;28;20112;-68
2021/01/17 05:37:18;;;;;;;26.40;14.77;;;5.80;73.90;;;;;;5041613;28;20087;-68
2021/01/17 05:39:52;;;;;;;28.07;13.63;;;5.90;74.00;;;;;;5043338;28;20065;-69
2021/01/17 05:42:28;;;;;;;25.80;14.33;;;5.90;74.00;;;;;;5041082;28;20100;-68
2021/01/17 05:44:55;;;;;;;26.73;16.30;;;5.90;73.90;;;;;;5046780;28;20471;-68
2021/01/17 05:47:23;;;;;;;24.93;13.73;;;5.90;73.90;;;;;;5045528;28;20029;-68
2021/01/17 05:49:49;;;;;;;29.40;16.53;;;5.90;73.90;;;;;;5050524;28;20047;-69
2021/01/17 05:52:17;;;;;;;26.77;14.80;;;5.90;73.90;;;;;;5043296;28;20134;-68
2021/01/17 05:54:47;;;;;;;27.60;14.40;;;5.90;74.00;;;;;;5050768;28;20108;-68
2021/01/17 05:57:18;;;;;;;29.43;14.67;;;5.90;73.90;;;;;;5035137;28;20018;-68
2021/01/17 05:59:44;;;;;;;26.77;16.20;;;5.90;73.90;;;;;;5035304;28;20036;-68
2021/01/17 06:02:20;;;;;;;26.43;15.23;;;5.90;73.90;;;;;;5051740;28;20033;-68
2021/01/17 06:04:54;;;;;;;24.10;13.30;;;5.90;74.00;;;;;;5048211;28;20483;-68
2021/01/17 06:07:22;;;;;;;26.87;15.33;;;5.90;74.00;;;;;;5044121;28;20036;-68
2021/01/17 06:09:59;;;;;;;26.20;13.70;;;5.90;74.00;;;;;;5035128;28;20056;-69
2021/01/17 06:12:30;;;;;;;27.20;14.33;;;5.90;74.00;;;;;;5045366;28;20086;-68
2021/01/17 06:15:08;;;;;;;21.97;11.47;;;5.90;74.00;;;;;;5036207;28;20087;-68
2021/01/17 06:17:54;;;;;;;26.03;14.20;;;5.90;74.00;;;;;;5031396;28;20045;-68
2021/01/17 06:20:25;;;;;;;26.10;13.67;;;5.90;74.10;;;;;;5044261;28;20111;-68
2021/01/17 06:22:58;;;;;;;23.17;12.90;;;5.90;74.20;;;;;;5041064;28;20021;-68
2021/01/17 06:25:31;;;;;;;23.80;12.93;;;5.90;74.20;;;;;;5050908;28;20041;-68
2021/01/17 06:28:14;;;;;;;22.67;12.80;;;5.90;74.20;;;;;;5051656;28;20072;-68
2021/01/17 06:30:40;;;;;;;22.88;12.98;;;6.00;74.20;;;;;;5050338;28;20031;-69
2021/01/17 06:33:07;;;;;;;22.57;12.87;;;6.00;74.20;;;;;;5027152;28;20391;-69
2021/01/17 06:35:42;;;;;;;21.20;11.77;;;6.00;74.20;;;;;;5039177;28;20458;-68
2021/01/17 06:38:18;;;;;;;24.07;12.10;;;6.00;74.10;;;;;;5051584;28;20479;-69
2021/01/17 06:40:45;;;;;;;27.63;13.67;;;6.00;74.10;;;;;;5051372;28;20057;-68
2021/01/17 06:43:11;;;;;;;31.47;13.60;;;6.00;74.10;;;;;;5038430;28;20068;-68
2021/01/17 06:45:41;;;;;;;26.03;12.73;;;6.00;74.10;;;;;;5033100;28;20475;-68
2021/01/17 06:48:07;;;;;;;27.60;13.63;;;6.00;74.20;;;;;;5038699;28;20029;-68
2021/01/17 06:50:33;;;;;;;20.40;12.33;;;6.00;74.20;;;;;;5037087;28;20355;-68
2021/01/17 06:52:59;;;;;;;26.63;12.83;;;6.00;74.20;;;;;;5045192;28;20033;-68
2021/01/17 06:55:25;;;;;;;26.10;12.83;;;6.00;74.20;;;;;;5050165;28;20061;-69
2021/01/17 06:57:52;;;;;;;22.93;12.67;;;6.00;74.10;;;;;;5051439;28;20099;-68
2021/01/17 07:00:19;;;;;;;26.23;13.63;;;6.10;74.20;;;;;;5050711;28;20087;-68
2021/01/17 07:02:54;;;;;;;29.60;15.57;;;6.00;74.10;;;;;;5050527;28;20056;-68
2021/01/17 07:05:29;;;;;;;27.03;13.40;;;6.10;74.20;;;;;;5035636;28;20034;-68
2021/01/17 07:08:22;;;;;;;36.90;14.70;;;6.00;74.30;;;;;;5035432;28;20032;-68
2021/01/17 07:10:58;;;;;;;26.83;13.88;;;6.00;74.40;;;;;;5051176;28;20040;-68
2021/01/17 07:13:29;;;;;;;24.93;14.27;;;6.00;74.30;;;;;;5038491;28;20391;-68
2021/01/17 07:15:55;;;;;;;26.10;13.57;;;6.00;74.30;;;;;;5048600;28;20044;-68
2021/01/17 07:18:23;;;;;;;31.63;14.10;;;6.00;74.40;;;;;;5026754;28;20085;-68
2021/01/17 07:20:50;;;;;;;25.13;13.33;;;6.10;74.40;;;;;;5049246;28;20279;-68
2021/01/17 07:23:17;;;;;;;28.90;14.80;;;6.10;74.40;;;;;;5047820;28;20037;-69
2021/01/17 07:25:45;;;;;;;25.90;14.63;;;6.10;74.30;;;;;;5033395;28;20053;-68
2021/01/17 07:28:16;;;;;;;27.80;14.77;;;6.10;74.30;;;;;;5042508;28;20378;-69
2021/01/17 07:31:00;;;;;;;27.03;15.20;;;6.10;74.30;;;;;;5050283;28;20025;-69
2021/01/17 07:33:26;;;;;;;28.48;15.20;;;6.10;74.20;;;;;;5045067;28;20037;-69
2021/01/17 07:36:00;;;;;;;28.20;15.13;;;6.10;74.40;;;;;;5050357;28;20046;-69
2021/01/17 07:38:27;;;;;;;;;;;6.10;74.90;;;;;;5049692;28;20029;-68
2021/01/17 07:40:57;;;;;;;27.97;13.93;;;6.10;74.40;;;;;;5045669;28;19965;-68
2021/01/17 07:43:37;;;;;;;30.43;14.20;;;6.20;74.40;;;;;;5030226;28;20040;-69
2021/01/17 07:46:16;;;;;;;29.77;15.37;;;6.10;74.40;;;;;;5018192;28;20041;-69
2021/01/17 07:48:44;;;;;;;33.13;14.37;;;6.10;74.60;;;;;;5031649;28;20114;-69
2021/01/17 07:51:12;;;;;;;25.13;13.40;;;6.10;74.70;;;;;;5037738;28;20029;-69
2021/01/17 07:53:38;;;;;;;32.80;15.93;;;6.20;74.70;;;;;;5038137;28;20025;-69
2021/01/17 07:56:16;;;;;;;27.77;13.67;;;6.20;74.70;;;;;;5034616;28;20060;-69
2021/01/17 07:58:49;;;;;;;39.17;19.20;;;6.20;74.80;;;;;;5049810;28;20067;-69
2021/01/17 08:01:37;;;;;;;33.28;15.25;;;6.10;74.90;;;;;;5050726;28;20027;-69
2021/01/17 08:04:16;;;;;;;30.70;15.03;;;6.20;74.90;;;;;;5048738;28;20132;-69
2021/01/17 08:06:42;;;;;;;39.97;16.23;;;6.10;75.00;;;;;;5023312;28;20146;-69
2021/01/17 08:09:09;;;;;;;34.07;16.73;;;6.10;75.40;;;;;;5044054;28;20436;-70
2021/01/17 08:11:51;;;;;;;31.00;14.57;;;7.10;76.10;;;;;;5031091;28;20029;-70
2021/01/17 08:14:21;;;;;;;30.30;15.90;;;6.00;75.70;;;;;;5046609;28;20081;-70
2021/01/17 08:17:11;;;;;;;40.30;18.50;;;6.00;75.80;;;;;;5045370;28;20029;-70
2021/01/17 08:19:38;;;;;;;38.43;18.17;;;6.00;75.80;;;;;;5029783;28;20041;-70
2021/01/17 08:22:16;;;;;;;38.00;16.90;;;6.10;75.80;;;;;;5030146;28;20036;-69
2021/01/17 08:24:43;;;;;;;37.40;17.30;;;6.10;75.70;;;;;;5029445;28;20149;-69
2021/01/17 08:27:08;;;;;;;36.27;17.90;;;6.20;75.60;;;;;;5031580;28;20033;-69
2021/01/17 08:30:11;;;;;;;32.97;15.23;;;6.30;75.50;;;;;;5040175;28;20017;-69
2021/01/17 08:32:47;;;;;;;35.97;17.50;;;6.20;76.00;;;;;;5018659;28;20811;-69
2021/01/17 08:35:19;;;;;;;37.87;17.00;;;6.40;75.20;;;;;;5037453;28;20528;-69
2021/01/17 08:37:49;;;;;;;39.03;17.07;;;6.50;75.10;;;;;;5035500;28;20084;-70
2021/01/17 08:40:16;;;;;;;35.67;16.53;;;6.50;75.00;;;;;;5030133;28;20057;-69
2021/01/17 08:42:54;;;;;;;43.37;18.80;;;6.60;74.90;;;;;;5032800;28;20025;-70
2021/01/17 08:45:22;;;;;;;33.50;16.00;;;6.60;74.80;;;;;;5044216;28;20034;-70
2021/01/17 08:47:53;;;;;;;39.87;18.07;;;6.60;74.90;;;;;;5043743;28;20467;-70
2021/01/17 08:50:36;;;;;;;35.33;16.30;;;6.60;75.20;;;;;;5049359;28;20448;-68
2021/01/17 08:53:27;;;;;;;39.63;18.35;;;6.60;75.20;;;;;;5044126;28;20048;-68
2021/01/17 08:55:58;;;;;;;34.13;16.50;;;6.60;75.10;;;;;;5039286;28;20049;-68
2021/01/17 08:58:27;;;;;;;39.77;17.20;;;6.60;75.10;;;;;;5043448;28;20063;-70
2021/01/17 09:00:53;;;;;;;43.30;16.80;;;6.50;75.40;;;;;;5025117;28;20036;-70
2021/01/17 09:03:24;;;;;;;33.73;17.13;;;6.50;75.70;;;;;;5040895;28;20026;-70
2021/01/17 09:06:13;;;;;;;44.13;18.97;;;6.50;75.60;;;;;;5040271;28;20025;-72
2021/01/17 09:09:01;;;;;;;43.27;19.57;;;6.60;75.30;;;;;;5032795;28;20037;-68
2021/01/17 09:11:29;;;;;;;38.73;18.13;;;6.70;75.00;;;;;;5049897;28;20106;-68
2021/01/17 09:14:07;;;;;;;39.10;18.77;;;6.80;74.90;;;;;;5039436;28;20540;-68
2021/01/17 09:16:42;;;;;;;45.20;19.93;;;6.80;74.70;;;;;;5045813;28;20039;-68
2021/01/17 09:19:08;;;;;;;38.37;18.07;;;6.90;74.60;;;;;;5036389;28;20025;-68
2021/01/17 09:21:34;;;;;;;39.83;19.60;;;7.00;74.50;;;;;;5036131;28;20124;-68
2021/01/17 09:24:07;;;;;;;33.23;15.67;;;7.10;74.60;;;;;;5035223;28;20033;-69
2021/01/17 09:26:33;;;;;;;39.67;20.47;;;7.10;74.40;;;;;;5042232;28;20037;-68
2021/01/17 09:28:58;;;;;;;38.73;17.97;;;7.20;74.30;;;;;;5044031;28;20102;-69
2021/01/17 09:31:28;;;;;;;40.53;20.40;;;7.30;74.30;;;;;;5022170;28;20057;-69
2021/01/17 09:33:55;;;;;;;38.07;18.30;;;7.30;74.30;;;;;;5021362;28;20084;-69
2021/01/17 09:36:25;;;;;;;40.47;18.87;;;7.40;74.50;;;;;;5046222;28;20061;-69
2021/01/17 09:38:51;;;;;;;40.60;19.77;;;7.50;74.50;;;;;;5048832;28;20025;-69
2021/01/17 09:41:26;;;;;;;37.27;17.27;;;7.60;74.50;;;;;;5039568;28;20378;-69
2021/01/17 09:43:52;;;;;;;35.17;16.13;;;7.70;74.50;;;;;;5036460;28;20025;-69
2021/01/17 09:46:24;;;;;;;49.07;19.83;;;7.80;74.20;;;;;;5044373;28;20023;-68
2021/01/17 09:48:57;;;;;;;35.75;18.17;;;7.90;73.80;;;;;;5043906;28;20036;-69
2021/01/17 09:51:25;;;;;;;41.65;20.67;;;8.00;73.70;;;;;;5032280;28;20064;-68
2021/01/17 09:53:53;;;;;;;43.53;17.80;;;8.00;73.60;;;;;;5037977;28;20131;-69
2021/01/17 09:56:19;;;;;;;37.03;18.63;;;8.10;73.40;;;;;;5041320;28;20041;-69
2021/01/17 09:58:45;;;;;;;37.40;19.38;;;8.10;73.40;;;;;;5033387;28;20045;-69
2021/01/17 10:01:19;;;;;;;40.90;19.03;;;8.20;73.50;;;;;;5005540;28;20030;-68
2021/01/17 10:03:46;;;;;;;44.77;20.07;;;8.20;73.40;;;;;;5037580;28;20072;-70
2021/01/17 10:06:12;;;;;;;37.63;16.48;;;8.10;73.40;;;;;;5038025;28;20036;-69
2021/01/17 10:08:39;;;;;;;42.67;20.37;;;8.20;73.60;;;;;;5048311;28;20078;-69
2021/01/17 10:11:05;;;;;;;42.40;17.80;;;8.20;74.10;;;;;;5041072;28;20025;-68
2021/01/17 10:13:30;;;;;;;38.80;22.30;;;8.30;73.90;;;;;;5039510;28;20040;-68
2021/01/17 10:15:56;;;;;;;31.27;18.20;;;8.60;72.70;;;;;;5035535;28;20410;-68
2021/01/17 10:18:25;;;;;;;36.78;18.52;;;8.60;72.70;;;;;;5042415;28;20175;-68
2021/01/17 10:20:55;;;;;;;36.13;20.02;;;8.80;72.60;;;;;;5041806;28;20152;-68
2021/01/17 10:23:29;;;;;;;43.88;21.08;;;8.70;73.10;;;;;;5041967;28;20427;-68
2021/01/17 10:25:54;;;;;;;43.42;21.75;;;9.00;73.70;;;;;;5034818;28;20033;-68
2021/01/17 10:28:25;;;;;;;43.00;22.65;;;9.20;72.50;;;;;;5039166;28;20091;-68
2021/01/17 10:30:55;;;;;;;37.13;22.30;;;9.40;71.60;;;;;;5042206;28;20108;-68
2021/01/17 10:33:22;;;;;;;38.00;21.20;;;9.40;70.60;;;;;;5031349;28;20033;-68
2021/01/17 10:35:49;;;;;;;48.53;20.38;;;9.40;71.20;;;;;;5017966;28;20071;-68
2021/01/17 10:38:18;;;;;;;37.28;19.42;;;9.40;71.30;;;;;;5035235;28;20122;-69
2021/01/17 10:40:45;;;;;;;42.53;20.05;;;9.40;71.40;;;;;;5042679;28;20230;-69
2021/01/17 10:43:31;;;;;;;35.13;18.13;;;9.40;71.60;;;;;;5034675;28;20355;-68
2021/01/17 10:46:15;;;;;;;37.85;19.13;;;9.50;71.60;;;;;;5032057;28;20107;-68
2021/01/17 10:49:09;;;;;;;39.28;20.58;;;9.70;71.00;;;;;;5017639;28;20029;-69
2021/01/17 10:51:42;;;;;;;30.75;17.75;;;9.70;71.60;;;;;;5033349;28;20092;-68
2021/01/17 10:54:12;;;;;;;33.45;15.77;;;9.90;71.50;;;;;;5044906;28;20414;-69
2021/01/17 10:56:38;;;;;;;28.60;13.75;;;10.00;70.90;;;;;;5043968;28;20057;-68
2021/01/17 10:59:12;;;;;;;28.50;13.82;;;10.10;71.10;;;;;;5038015;28;20113;-70
2021/01/17 11:01:43;;;;;;;34.92;16.38;;;10.00;71.60;;;;;;5047973;28;20024;-71
2021/01/17 11:04:09;;;;;;;38.53;17.48;;;10.40;70.70;;;;;;5043836;28;20055;-71
2021/01/17 11:06:36;;;;;;;48.80;18.95;;;10.50;70.30;;;;;;5017315;28;20479;-71
2021/01/17 11:09:02;;;;;;;34.90;17.70;;;10.60;69.50;;;;;;5048298;28;20127;-71
2021/01/17 11:11:45;;;;;;;29.88;16.70;;;10.60;69.40;;;;;;5012866;28;20075;-71
2021/01/17 11:14:11;;;;;;;34.97;16.37;;;10.50;69.50;;;;;;5046216;28;20114;-72
2021/01/17 11:16:38;;;;;;;37.08;18.00;;;10.40;69.50;;;;;;5029812;28;20111;-71
2021/01/17 11:19:06;;;;;;;32.72;17.23;;;10.40;69.50;;;;;;5024406;28;20095;-73
2021/01/17 11:21:32;;;;;;;31.73;17.92;;;10.40;69.90;;;;;;5047326;28;20033;-71
2021/01/17 11:23:58;;;;;;;33.70;17.50;;;10.40;70.50;;;;;;5033856;28;20131;-71
2021/01/17 11:26:25;;;;;;;31.98;16.17;;;10.70;70.40;;;;;;5033255;28;20626;-70
2021/01/17 11:28:53;;;;;;;32.03;17.33;;;10.70;70.80;;;;;;5040433;28;20458;-72
2021/01/17 11:31:21;;;;;;;28.80;15.77;;;10.90;70.70;;;;;;5038788;28;20099;-71
2021/01/17 11:33:47;;;;;;;33.00;13.68;;;11.20;70.00;;;;;;5020063;28;20389;-72
2021/01/17 11:36:18;;;;;;;32.60;15.75;;;11.20;70.50;;;;;;5021276;28;20064;-71
2021/01/17 11:38:56;;;;;;;32.10;14.93;;;11.20;70.20;;;;;;5038666;28;20124;-72
2021/01/17 11:41:33;;;;;;;29.08;12.07;;;11.10;70.70;;;;;;5035026;28;20029;-72
2021/01/17 11:44:13;;;;;;;29.85;9.45;;;11.00;71.10;;;;;;5030149;28;20025;-72
2021/01/17 11:46:39;;;;;;;26.02;9.27;;;10.70;71.90;;;;;;5034859;28;20121;-72
2021/01/17 11:49:06;;;;;;;26.67;8.95;;;10.50;72.30;;;;;;5016457;28;20038;-71
2021/01/17 11:51:31;;;;;;;24.88;9.45;;;10.40;72.70;;;;;;5031202;28;20046;-71
2021/01/17 11:54:15;;;;;;;20.25;8.18;;;10.30;73.20;;;;;;5031290;28;20066;-69
2021/01/17 11:56:41;;;;;;;26.30;10.23;;;10.40;73.40;;;;;;5037298;28;20122;-68
2021/01/17 11:59:07;;;;;;;30.73;10.15;;;10.30;73.90;;;;;;5045470;28;20451;-68
2021/01/17 12:01:33;;;;;;;23.48;9.35;;;10.30;73.90;;;;;;5045183;28;20035;-68
2021/01/17 12:04:04;;;;;;;24.95;8.88;;;10.20;73.50;;;;;;5049435;28;20483;-69
2021/01/17 12:06:31;;;;;;;18.33;8.52;;;10.10;74.00;;;;;;5017170;28;20121;-68
2021/01/17 12:09:07;;;;;;;22.42;7.47;;;10.00;74.20;;;;;;5037768;28;20047;-68
2021/01/17 12:11:35;;;;;;;25.38;10.02;;;9.90;74.80;;;;;;5025535;28;20037;-68
2021/01/17 12:14:11;;;;;;;20.73;7.97;;;9.90;75.00;;;;;;5048400;28;20051;-68
2021/01/17 12:16:43;;;;;;;21.95;7.30;;;9.90;75.40;;;;;;5029739;28;20526;-68
2021/01/17 12:19:14;;;;;;;22.88;8.30;;;9.90;75.10;;;;;;5048426;28;20560;-68
2021/01/17 12:21:40;;;;;;;21.23;7.03;;;9.70;75.70;;;;;;5036631;28;20040;-69
2021/01/17 12:24:09;;;;;;;21.63;7.97;;;9.80;75.90;;;;;;5042107;28;20033;-69
2021/01/17 12:26:35;;;;;;;20.40;7.65;;;9.70;76.40;;;;;;5037944;28;20033;-69
2021/01/17 12:29:01;;;;;;;28.52;9.45;;;9.80;76.20;;;;;;5037561;28;20030;-68
2021/01/17 12:31:27;;;;;;;16.67;7.07;;;9.70;76.70;;;;;;5050470;28;20029;-68
2021/01/17 12:33:55;;;;;;;24.67;7.00;;;9.90;76.40;;;;;;5033893;28;20033;-69
2021/01/17 12:36:22;;;;;;;25.17;7.18;;;9.90;76.90;;;;;;5039416;28;20037;-69
2021/01/17 12:38:48;;;;;;;28.80;9.75;;;10.00;76.70;;;;;;5038100;28;20025;-68
2021/01/17 12:41:16;;;;;;;31.02;8.65;;;10.00;76.50;;;;;;5033462;28;20065;-69
2021/01/17 12:43:43;;;;;;;20.30;6.18;;;10.10;76.50;;;;;;5034903;28;20029;-68
2021/01/17 12:46:09;;;;;;;17.13;6.68;;;10.20;76.00;;;;;;5032957;28;20041;-68
2021/01/17 12:48:36;;;;;;;28.00;8.10;;;10.10;77.10;;;;;;5031855;28;20111;-68
2021/01/17 12:51:03;;;;;;;26.50;7.80;;;10.20;76.40;;;;;;5037980;28;20093;-69